Time;durP1;ratioP1;P1;durP2;ratioP2;P2;SDS_P1;SDS_P2;PMS_P1;PMS_P2;Temp;Humidity;BMP_temperature;BMP_pressure;BME280_temperature;BME280_humidity;BME280_pressure;Samples;Min_cycle;Max_cycle;Signal;HPM_P1;HPM_P2
2022/06/22 00:01:30;;;;;;;6.73;6.23;;;21.40;99.90;;;;;;5049192;28;20546;-70
2022/06/22 00:04:00;;;;;;;6.90;6.20;;;21.30;99.90;;;;;;5051324;28;20474;-70
2022/06/22 00:06:33;;;;;;;7.70;6.00;;;21.20;99.90;;;;;;5053887;28;20459;-69
2022/06/22 00:09:01;;;;;;;7.47;6.53;;;21.10;99.90;;;;;;5053672;28;20456;-70
2022/06/22 00:11:29;;;;;;;7.60;6.83;;;21.10;99.90;;;;;;5053159;28;20460;-70
2022/06/22 00:13:59;;;;;;;8.63;7.70;;;21.00;99.90;;;;;;5053491;28;20486;-69
2022/06/22 00:16:29;;;;;;;7.47;6.77;;;20.90;99.90;;;;;;5053736;28;20451;-70
2022/06/22 00:18:58;;;;;;;6.77;6.27;;;20.80;99.90;;;;;;5053446;28;20451;-70
2022/06/22 00:21:28;;;;;;;6.30;5.73;;;20.70;99.90;;;;;;5053038;28;20833;-71
2022/06/22 00:23:58;;;;;;;7.80;5.80;;;20.80;99.90;;;;;;5053518;28;20849;-69
2022/06/22 00:26:34;;;;;;;6.40;5.80;;;20.70;99.90;;;;;;5053265;28;20447;-69
2022/06/22 00:29:17;;;;;;;5.90;5.40;;;20.70;99.90;;;;;;5053347;28;21011;-69
2022/06/22 00:31:58;;;;;;;6.27;5.67;;;20.70;99.90;;;;;;5053001;28;20513;-70
2022/06/22 00:34:27;;;;;;;6.67;5.97;;;20.70;99.90;;;;;;5053217;28;20483;-70
2022/06/22 00:37:00;;;;;;;7.00;6.10;;;20.60;99.90;;;;;;5053163;28;20866;-70
2022/06/22 00:39:33;;;;;;;7.27;6.67;;;20.60;99.90;;;;;;5053318;28;20455;-70
2022/06/22 00:42:15;;;;;;;7.90;6.70;;;20.50;99.90;;;;;;5052655;28;20468;-70
2022/06/22 00:44:46;;;;;;;9.37;7.00;;;20.60;99.90;;;;;;5053242;28;20440;-70
2022/06/22 00:47:24;;;;;;;7.57;6.87;;;20.50;99.90;;;;;;5053098;28;20462;-70
2022/06/22 00:49:53;;;;;;;8.17;6.40;;;20.50;99.90;;;;;;5052904;28;20452;-70
2022/06/22 00:52:26;;;;;;;7.10;6.47;;;20.60;99.90;;;;;;5052872;28;20472;-70
2022/06/22 00:54:53;;;;;;;8.00;7.20;;;20.60;99.90;;;;;;5052974;28;20586;-70
2022/06/22 00:57:27;;;;;;;8.20;7.17;;;20.50;99.90;;;;;;5052866;28;20446;-70
2022/06/22 00:59:59;;;;;;;11.50;7.27;;;20.40;99.90;;;;;;5052466;28;21114;-70
2022/06/22 01:02:34;;;;;;;7.70;6.90;;;20.40;99.90;;;;;;5052865;28;20460;-70
2022/06/22 01:05:18;;;;;;;7.03;6.53;;;20.30;99.90;;;;;;5052753;28;20435;-70
2022/06/22 01:07:53;;;;;;;6.70;6.10;;;20.30;99.90;;;;;;5052632;28;20702;-69
2022/06/22 01:10:24;;;;;;;10.67;7.00;;;20.40;99.90;;;;;;5052430;28;20470;-70
2022/06/22 01:12:57;;;;;;;7.23;6.27;;;20.30;99.90;;;;;;5052395;28;20470;-70
2022/06/22 01:15:30;;;;;;;9.60;6.90;;;20.20;99.90;;;;;;5052095;28;20958;-70
2022/06/22 01:18:05;;;;;;;7.17;6.60;;;20.20;99.90;;;;;;5052930;28;20448;-70
2022/06/22 01:20:43;;;;;;;7.40;6.70;;;20.10;99.90;;;;;;5052465;28;20451;-70
2022/06/22 01:23:49;;;;;;;9.10;7.03;;;20.00;99.90;;;;;;5052525;28;20465;-70
2022/06/22 01:26:41;;;;;;;7.00;6.20;;;20.20;99.90;;;;;;4971427;28;20454;-70
2022/06/22 01:29:15;;;;;;;7.80;6.97;;;20.10;99.90;;;;;;5052415;28;20443;-69
2022/06/22 01:31:49;;;;;;;7.20;6.50;;;20.10;99.90;;;;;;5052199;28;20468;-70
2022/06/22 01:34:19;;;;;;;7.27;6.67;;;20.10;99.90;;;;;;5052677;28;20494;-69
2022/06/22 01:36:47;;;;;;;7.07;6.47;;;20.10;99.90;;;;;;5052199;28;20506;-69
2022/06/22 01:39:14;;;;;;;7.60;6.90;;;20.10;99.90;;;;;;5051961;28;20958;-69
2022/06/22 01:41:53;;;;;;;7.40;6.67;;;20.10;99.90;;;;;;5051509;28;20471;-70
2022/06/22 01:44:25;;;;;;;8.40;7.57;;;20.00;99.90;;;;;;5052067;28;20440;-69
2022/06/22 01:47:19;;;;;;;7.70;7.10;;;19.90;99.90;;;;;;5052034;28;20444;-70
2022/06/22 01:50:04;;;;;;;8.83;7.43;;;19.90;99.90;;;;;;5051642;28;21078;-69
2022/06/22 01:52:58;;;;;;;7.63;6.93;;;19.90;99.90;;;;;;5051949;28;20464;-69
2022/06/22 01:55:41;;;;;;;7.57;6.87;;;19.80;99.90;;;;;;5051904;28;20436;-70
2022/06/22 01:58:30;;;;;;;8.10;7.40;;;19.70;99.90;;;;;;5051684;28;21355;-70
2022/06/22 02:01:03;;;;;;;8.60;7.80;;;19.70;99.90;;;;;;5051400;28;20440;-70
2022/06/22 02:03:34;;;;;;;8.30;7.50;;;19.60;99.90;;;;;;5051636;28;20452;-70
2022/06/22 02:07:44;;;;;;;8.40;7.57;;;19.60;99.90;;;;;;5051449;28;20458;-70
2022/06/22 02:08:56;;;;;;;7.20;6.60;;;19.70;99.90;;;;;;5051146;28;20498;-70
2022/06/22 02:11:27;;;;;;;8.17;7.43;;;19.70;99.90;;;;;;5051224;28;20436;-70
2022/06/22 02:13:58;;;;;;;7.87;7.13;;;19.70;99.90;;;;;;5051487;28;20487;-70
2022/06/22 02:16:30;;;;;;;7.73;7.03;;;19.80;99.90;;;;;;5051345;28;20462;-67
2022/06/22 02:19:11;;;;;;;8.60;7.47;;;19.80;99.90;;;;;;5051217;28;20456;-70
2022/06/22 02:21:42;;;;;;;8.13;6.30;;;20.00;99.90;;;;;;5050897;28;20467;-69
2022/06/22 02:24:13;;;;;;;8.47;7.73;;;20.10;99.90;;;;;;5051083;28;20452;-69
2022/06/22 02:26:45;;;;;;;8.60;7.80;;;20.20;99.90;;;;;;5050595;28;20452;-69
2022/06/22 02:29:13;;;;;;;9.70;8.50;;;20.10;99.90;;;;;;5050754;28;20448;-69
2022/06/22 02:31:42;;;;;;;8.50;7.77;;;20.10;99.90;;;;;;5050431;28;20479;-69
2022/06/22 02:34:09;;;;;;;10.10;9.10;;;20.10;99.90;;;;;;5051019;28;20500;-69
2022/06/22 02:36:41;;;;;;;8.43;7.67;;;20.00;99.90;;;;;;5050762;28;20543;-69
2022/06/22 02:39:10;;;;;;;10.37;7.83;;;20.00;99.90;;;;;;5050825;28;21072;-69
2022/06/22 02:44:31;;;;;;;11.50;9.13;;;20.10;99.90;;;;;;5050841;28;21056;-69
2022/06/22 02:47:13;;;;;;;9.70;8.90;;;20.10;99.90;;;;;;5050812;28;20447;-70
2022/06/22 02:49:44;;;;;;;9.90;8.90;;;20.20;99.90;;;;;;5050740;28;20452;-69
2022/06/22 02:52:14;;;;;;;9.07;8.20;;;20.20;99.90;;;;;;5050430;28;20467;-69
2022/06/22 02:54:45;;;;;;;9.83;8.10;;;20.30;99.90;;;;;;5050455;28;20484;-69
2022/06/22 02:57:20;;;;;;;9.27;8.27;;;20.30;99.90;;;;;;5050470;28;20965;-69
2022/06/22 02:59:49;;;;;;;8.30;7.10;;;20.30;99.90;;;;;;5050423;28;20452;-68
2022/06/22 03:02:19;;;;;;;8.27;7.47;;;20.30;99.90;;;;;;5050167;28;21007;-69
2022/06/22 03:04:47;;;;;;;7.87;7.07;;;20.30;99.90;;;;;;5050279;28;20446;-70
2022/06/22 03:07:14;;;;;;;8.67;7.83;;;20.30;99.90;;;;;;5050316;28;20451;-70
2022/06/22 03:09:43;;;;;;;8.00;7.20;;;20.20;99.90;;;;;;5050443;28;20639;-69
2022/06/22 03:12:14;;;;;;;9.90;8.70;;;20.00;99.90;;;;;;5050158;28;20468;-70
2022/06/22 03:14:50;;;;;;;9.70;8.70;;;19.90;99.90;;;;;;5050140;28;20487;-70
2022/06/22 03:17:22;;;;;;;9.03;8.13;;;19.90;99.90;;;;;;5050212;28;21102;-69
2022/06/22 03:19:52;;;;;;;9.30;7.80;;;19.80;99.90;;;;;;5050109;28;20529;-69
2022/06/22 03:22:24;;;;;;;8.30;7.60;;;19.80;99.90;;;;;;5050253;28;20468;-70
2022/06/22 03:24:55;;;;;;;8.80;8.00;;;19.70;99.90;;;;;;5050140;28;20533;-69
2022/06/22 03:27:26;;;;;;;10.37;8.60;;;19.70;99.90;;;;;;5049981;28;20452;-69
2022/06/22 03:29:56;;;;;;;8.90;8.03;;;19.70;99.90;;;;;;5049532;28;20450;-69
2022/06/22 03:32:29;;;;;;;8.77;7.87;;;19.80;99.90;;;;;;5050173;28;20490;-69
2022/06/22 03:35:02;;;;;;;9.40;8.43;;;19.90;99.90;;;;;;5050022;28;20484;-69
2022/06/22 03:37:33;;;;;;;8.60;7.80;;;19.90;99.90;;;;;;5050046;28;20888;-70
2022/06/22 03:40:06;;;;;;;10.00;7.87;;;19.90;99.90;;;;;;5049231;28;20960;-69
2022/06/22 03:42:37;;;;;;;9.30;8.40;;;19.90;99.90;;;;;;5049795;28;21084;-70
2022/06/22 03:45:08;;;;;;;8.33;7.53;;;19.80;99.90;;;;;;5049934;28;20440;-68
2022/06/22 03:47:40;;;;;;;8.73;7.80;;;19.80;99.90;;;;;;5049967;28;20892;-69
2022/06/22 03:50:13;;;;;;;9.63;8.80;;;19.70;99.90;;;;;;5049278;28;20440;-70
2022/06/22 03:52:46;;;;;;;8.60;7.90;;;19.70;99.90;;;;;;5049716;28;20466;-69
2022/06/22 03:55:17;;;;;;;9.60;8.70;;;19.70;99.90;;;;;;5049748;28;20484;-70
2022/06/22 03:57:46;;;;;;;8.50;7.70;;;19.70;99.90;;;;;;5050184;28;20539;-69
2022/06/22 04:00:14;;;;;;;8.83;8.00;;;19.80;99.90;;;;;;5049432;28;20448;-68
2022/06/22 04:02:42;;;;;;;8.80;7.90;;;19.90;99.90;;;;;;5049775;28;20472;-68
2022/06/22 04:05:14;;;;;;;9.70;8.80;;;19.90;99.90;;;;;;5049609;28;20444;-69
2022/06/22 04:07:42;;;;;;;9.67;8.77;;;20.00;99.90;;;;;;5049444;28;20466;-69
2022/06/22 04:10:22;;;;;;;9.63;8.73;;;20.10;99.90;;;;;;5049408;28;20450;-68
2022/06/22 04:12:51;;;;;;;10.43;9.40;;;20.10;99.90;;;;;;5049758;28;20529;-68
2022/06/22 04:15:28;;;;;;;10.00;8.27;;;20.10;99.90;;;;;;5049348;28;20476;-69
2022/06/22 04:18:00;;;;;;;9.27;8.30;;;20.10;99.90;;;;;;5048346;28;20826;-69
2022/06/22 04:20:49;;;;;;;10.83;8.10;;;20.20;99.90;;;;;;5047963;28;20455;-69
2022/06/22 04:23:19;;;;;;;9.70;8.70;;;20.20;99.90;;;;;;5049477;28;20468;-68
2022/06/22 04:25:48;;;;;;;10.43;9.43;;;20.30;99.90;;;;;;5049443;28;20539;-69
2022/06/22 04:28:17;;;;;;;10.00;9.03;;;20.30;99.90;;;;;;5049456;28;20448;-68
2022/06/22 04:30:47;;;;;;;10.00;9.10;;;20.30;99.90;;;;;;5048733;28;20463;-68
2022/06/22 04:33:26;;;;;;;10.50;9.40;;;20.20;99.90;;;;;;5049183;28;21010;-69
2022/06/22 04:35:58;;;;;;;9.30;8.40;;;20.20;99.90;;;;;;5048841;28;20486;-68
2022/06/22 04:38:31;;;;;;;9.70;8.27;;;20.20;99.90;;;;;;5049425;28;20447;-68
2022/06/22 04:41:06;;;;;;;12.13;8.80;;;20.20;99.90;;;;;;5048768;28;20539;-67
2022/06/22 04:43:36;;;;;;;9.30;8.40;;;20.30;99.90;;;;;;5049260;28;20475;-67
2022/06/22 04:46:02;;;;;;;10.33;8.50;;;20.40;99.90;;;;;;5049007;28;20810;-68
2022/06/22 04:48:36;;;;;;;10.73;7.80;;;20.50;99.90;;;;;;5048922;28;20466;-68
2022/06/22 04:51:05;;;;;;;12.00;7.63;;;20.60;99.90;;;;;;5048528;28;20452;-69
2022/06/22 04:53:40;;;;;;;8.23;7.43;;;20.70;99.90;;;;;;5048875;28;20552;-69
2022/06/22 04:56:11;;;;;;;7.40;6.80;;;20.80;99.90;;;;;;5044581;28;20479;-66
2022/06/22 04:58:44;;;;;;;8.53;7.73;;;21.00;99.90;;;;;;5049471;28;20471;-67
2022/06/22 05:01:16;;;;;;;8.33;7.50;;;21.10;99.90;;;;;;5045551;28;20943;-67
2022/06/22 05:03:44;;;;;;;8.97;8.17;;;21.20;99.90;;;;;;5043011;28;20455;-66
2022/06/22 05:06:18;;;;;;;8.67;7.73;;;21.30;99.90;;;;;;5045637;28;21001;-66
2022/06/22 05:08:52;;;;;;;11.10;7.70;;;21.40;99.90;;;;;;5043226;28;20464;-67
2022/06/22 05:11:24;;;;;;;8.60;7.70;;;21.60;99.90;;;;;;5045387;28;20451;-67
2022/06/22 05:13:54;;;;;;;9.40;7.90;;;21.70;99.90;;;;;;5050882;28;21176;-67
2022/06/22 05:16:24;;;;;;;11.47;8.07;;;21.80;99.90;;;;;;5050657;28;20485;-67
2022/06/22 05:18:53;;;;;;;8.23;7.43;;;21.90;99.90;;;;;;5050697;28;20487;-66
2022/06/22 05:21:33;;;;;;;8.37;7.67;;;21.90;99.90;;;;;;5049105;28;20446;-67
2022/06/22 05:24:05;;;;;;;9.43;8.00;;;22.00;99.90;;;;;;5046682;28;20455;-66
2022/06/22 05:26:34;;;;;;;8.83;7.73;;;22.00;99.90;;;;;;5036584;28;20527;-66
2022/06/22 05:29:05;;;;;;;9.80;8.80;;;22.00;99.90;;;;;;5029385;28;20452;-65
2022/06/22 05:31:36;;;;;;;15.03;9.60;;;22.20;99.90;;;;;;5030073;28;20441;-66
2022/06/22 05:34:08;;;;;;;9.50;8.10;;;22.30;99.90;;;;;;5030454;28;20453;-66
2022/06/22 05:36:39;;;;;;;11.23;8.27;;;22.40;99.90;;;;;;5030301;28;20543;-67
2022/06/22 05:39:07;;;;;;;9.70;8.27;;;22.60;99.90;;;;;;5030495;28;20460;-66
2022/06/22 05:41:40;;;;;;;10.43;9.43;;;22.90;99.90;;;;;;5030268;28;20453;-66
2022/06/22 05:44:11;;;;;;;10.03;8.00;;;23.20;99.90;;;;;;5032063;28;20437;-66
2022/06/22 05:46:40;;;;;;;10.40;8.43;;;23.30;99.90;;;;;;5031920;28;20448;-67
2022/06/22 05:49:16;;;;;;;8.80;8.00;;;23.50;99.90;;;;;;5031798;28;20450;-67
2022/06/22 05:51:51;;;;;;;8.70;8.00;;;23.60;99.90;;;;;;5031455;28;20507;-66
2022/06/22 05:54:22;;;;;;;10.50;7.70;;;23.70;99.90;;;;;;5031821;28;20830;-67
2022/06/22 05:56:53;;;;;;;8.23;7.43;;;23.70;99.90;;;;;;5031877;28;20555;-66
2022/06/22 05:59:25;;;;;;;10.73;9.50;;;23.80;99.90;;;;;;5031742;28;20947;-67
2022/06/22 06:01:58;;;;;;;9.00;8.00;;;23.70;99.90;;;;;;5031411;28;20469;-66
2022/06/22 06:04:32;;;;;;;8.97;8.17;;;23.70;99.90;;;;;;5031676;28;20449;-67
2022/06/22 06:07:06;;;;;;;8.67;7.97;;;23.80;99.90;;;;;;5031644;28;20457;-67
2022/06/22 06:09:34;;;;;;;8.47;7.67;;;23.80;99.90;;;;;;5031550;28;20811;-67
2022/06/22 06:12:07;;;;;;;10.80;8.87;;;23.90;99.90;;;;;;5031025;28;20858;-67
2022/06/22 06:14:38;;;;;;;8.37;7.13;;;23.90;99.90;;;;;;5031656;28;20475;-67
2022/06/22 06:17:10;;;;;;;10.30;9.27;;;24.00;99.90;;;;;;5031401;28;20445;-67
2022/06/22 06:19:41;;;;;;;9.53;8.63;;;23.80;99.90;;;;;;5031426;28;20478;-67
2022/06/22 06:22:10;;;;;;;9.60;8.30;;;23.80;99.90;;;;;;5031137;28;20477;-67
2022/06/22 06:27:34;;;;;;;9.03;8.10;;;23.80;99.90;;;;;;5031122;28;20453;-66
2022/06/22 06:27:35;;;;;;;8.10;7.30;;;24.00;99.90;;;;;;5031130;28;20445;-66
2022/06/22 06:30:07;;;;;;;7.70;6.70;;;23.90;99.90;;;;;;5030838;28;20444;-66
2022/06/22 06:32:39;;;;;;;9.97;8.20;;;23.90;99.90;;;;;;5031152;28;20509;-67
2022/06/22 06:35:15;;;;;;;9.53;8.60;;;24.00;99.90;;;;;;5031072;28;20484;-67
2022/06/22 06:37:57;;;;;;;8.80;7.87;;;23.90;99.90;;;;;;5031430;28;20444;-67
2022/06/22 06:40:32;;;;;;;9.60;7.57;;;23.80;99.90;;;;;;5031031;28;20453;-66
2022/06/22 06:43:24;;;;;;;9.20;7.07;;;23.80;99.90;;;;;;5031245;28;20494;-66
2022/06/22 06:45:52;;;;;;;8.30;7.47;;;23.90;99.90;;;;;;5031156;28;20437;-66
2022/06/22 06:48:24;;;;;;;8.30;7.50;;;23.90;99.90;;;;;;5031186;28;20842;-67
2022/06/22 06:50:55;;;;;;;8.93;8.13;;;23.90;99.90;;;;;;5030878;28;20467;-67
2022/06/22 06:53:29;;;;;;;10.03;7.73;;;23.90;99.90;;;;;;5030867;28;20465;-66
2022/06/22 06:56:02;;;;;;;8.70;7.80;;;23.90;99.90;;;;;;5031078;28;20492;-67
2022/06/22 06:58:37;;;;;;;7.87;7.10;;;23.80;99.90;;;;;;5031025;28;20461;-66
2022/06/22 07:01:05;;;;;;;9.60;7.93;;;23.70;99.90;;;;;;5030497;28;20448;-66
2022/06/22 07:03:37;;;;;;;8.13;7.30;;;23.60;99.90;;;;;;5030390;28;20468;-66
2022/06/22 07:06:06;;;;;;;9.23;8.33;;;23.50;99.90;;;;;;5030462;28;20464;-66
2022/06/22 07:08:37;;;;;;;7.83;7.13;;;23.30;99.90;;;;;;5030567;28;20457;-67
2022/06/22 07:11:11;;;;;;;9.83;8.30;;;23.20;99.90;;;;;;5030345;28;20453;-67
2022/06/22 07:13:45;;;;;;;10.37;8.13;;;23.20;99.90;;;;;;5029962;28;20491;-67
2022/06/22 07:16:22;;;;;;;9.03;7.90;;;23.20;99.90;;;;;;5030243;28;20484;-66
2022/06/22 07:18:54;;;;;;;9.00;7.80;;;23.30;99.90;;;;;;5030351;28;20480;-67
2022/06/22 07:21:27;;;;;;;10.87;9.77;;;23.20;99.90;;;;;;5030097;28;20459;-67
2022/06/22 07:23:59;;;;;;;12.77;9.57;;;22.80;99.90;;;;;;5030425;28;20503;-68
2022/06/22 07:26:37;;;;;;;11.60;10.40;;;22.50;99.90;;;;;;5030180;28;20447;-67
2022/06/22 07:29:12;;;;;;;13.17;11.80;;;22.30;99.90;;;;;;5030170;28;20458;-67
2022/06/22 07:31:45;;;;;;;11.27;10.17;;;22.10;99.90;;;;;;5029896;28;20468;-67
2022/06/22 07:34:18;;;;;;;11.87;10.70;;;21.90;99.90;;;;;;5030128;28;20559;-67
2022/06/22 07:36:50;;;;;;;13.37;12.23;;;21.90;99.90;;;;;;5029975;28;20477;-67
2022/06/22 07:39:21;;;;;;;12.90;10.67;;;21.80;99.90;;;;;;5029971;28;20821;-67
2022/06/22 07:41:48;;;;;;;12.70;11.37;;;21.60;99.90;;;;;;5029626;28;20982;-67
2022/06/22 07:44:19;;;;;;;12.43;11.33;;;21.40;99.90;;;;;;5030145;28;20839;-68
2022/06/22 07:46:52;;;;;;;12.97;11.83;;;21.30;99.90;;;;;;5030059;28;20951;-65
2022/06/22 07:49:22;;;;;;;13.60;12.30;;;21.30;99.90;;;;;;5029902;28;20493;-67
2022/06/22 07:51:54;;;;;;;13.50;12.40;;;21.30;99.90;;;;;;5029399;28;20473;-67
2022/06/22 07:54:28;;;;;;;14.30;12.87;;;21.40;99.90;;;;;;5030097;28;20470;-68
2022/06/22 07:57:02;;;;;;;14.67;13.30;;;21.30;99.90;;;;;;5029805;28;21025;-68
2022/06/22 07:59:33;;;;;;;14.10;12.80;;;21.10;99.90;;;;;;5029720;28;20657;-67
2022/06/22 08:02:05;;;;;;;16.05;14.65;;;20.90;99.90;;;;;;5028936;28;20447;-68
2022/06/22 08:04:36;;;;;;;16.60;15.00;;;20.70;99.90;;;;;;5029750;28;20209;-67
2022/06/22 08:07:09;;;;;;;14.83;13.30;;;20.70;99.90;;;;;;5029708;28;20441;-68
2022/06/22 08:09:41;;;;;;;14.50;13.20;;;20.70;99.90;;;;;;5029888;28;20444;-67
2022/06/22 08:12:14;;;;;;;19.97;13.63;;;20.60;99.90;;;;;;5029489;28;20560;-67
2022/06/22 08:14:43;;;;;;;15.83;13.20;;;20.70;99.90;;;;;;5029265;28;20460;-67
2022/06/22 08:17:14;;;;;;;13.97;12.77;;;21.00;99.90;;;;;;5029682;28;20516;-67
2022/06/22 08:19:43;;;;;;;12.90;11.67;;;21.20;99.90;;;;;;5029437;28;20456;-67
2022/06/22 08:22:12;;;;;;;12.73;11.43;;;21.50;99.90;;;;;;5029313;28;20464;-66
2022/06/22 08:24:45;;;;;;;12.17;11.00;;;21.80;99.90;;;;;;5029438;28;20456;-67
2022/06/22 08:27:17;;;;;;;13.27;11.90;;;22.00;99.90;;;;;;5032977;28;20449;-67
2022/06/22 08:29:45;;;;;;;11.60;10.50;;;22.20;99.90;;;;;;5033236;28;20961;-65
2022/06/22 08:32:17;;;;;;;13.53;12.23;;;22.30;99.90;;;;;;5033281;28;20473;-67
2022/06/22 08:34:48;;;;;;;12.53;10.47;;;22.50;99.90;;;;;;5033603;28;20967;-66
2022/06/22 08:37:21;;;;;;;11.67;10.57;;;22.50;99.90;;;;;;5033338;28;20907;-67
2022/06/22 08:39:54;;;;;;;11.53;9.93;;;22.50;99.90;;;;;;5032870;28;20453;-67
2022/06/22 08:42:32;;;;;;;11.80;10.63;;;22.60;99.90;;;;;;5033207;28;20468;-66
2022/06/22 08:45:15;;;;;;;10.00;9.10;;;22.80;99.90;;;;;;5033205;28;20998;-67
2022/06/22 08:48:08;;;;;;;11.97;10.87;;;22.80;99.90;;;;;;5033075;28;20946;-67
2022/06/22 08:50:54;;;;;;;14.17;11.03;;;22.90;99.90;;;;;;5033068;28;20480;-67
2022/06/22 08:53:38;;;;;;;12.43;11.17;;;22.80;99.90;;;;;;5032353;28;20473;-67
2022/06/22 08:56:27;;;;;;;12.27;11.27;;;22.90;99.90;;;;;;5032943;28;21013;-67
2022/06/22 08:59:30;;;;;;;11.90;10.70;;;22.80;99.90;;;;;;5033091;28;20547;-67
2022/06/22 09:02:25;;;;;;;12.20;11.00;;;22.80;99.90;;;;;;5032356;28;20463;-67
2022/06/22 09:05:22;;;;;;;12.57;10.93;;;22.80;99.90;;;;;;5032712;28;20444;-67
2022/06/22 09:08:22;;;;;;;11.80;10.70;;;22.90;99.90;;;;;;5032566;28;20456;-66
2022/06/22 09:11:15;;;;;;;15.33;10.70;;;22.80;99.90;;;;;;5027661;28;21052;-67
2022/06/22 09:14:24;;;;;;;12.63;10.80;;;23.00;99.90;;;;;;5032656;28;20535;-67
2022/06/22 09:17:13;;;;;;;12.90;11.60;;;23.20;99.90;;;;;;5032774;28;20831;-67
2022/06/22 09:20:01;;;;;;;13.43;11.10;;;23.40;99.90;;;;;;5032922;28;20444;-67
2022/06/22 09:22:45;;;;;;;13.73;10.27;;;23.70;99.90;;;;;;5032794;28;21017;-68
2022/06/22 09:25:22;;;;;;;13.63;11.40;;;24.00;99.90;;;;;;5033186;28;20931;-67
2022/06/22 09:27:59;;;;;;;11.97;10.57;;;24.20;99.90;;;;;;5032674;28;20543;-67
2022/06/22 09:30:44;;;;;;;11.20;10.20;;;24.20;99.90;;;;;;5032566;28;20455;-67
2022/06/22 09:33:32;;;;;;;9.50;8.33;;;24.50;99.90;;;;;;5032433;28;20559;-67
2022/06/22 09:36:22;;;;;;;12.90;10.60;;;24.90;99.90;;;;;;5031850;28;20489;-67
2022/06/22 09:39:20;;;;;;;10.53;9.30;;;25.20;99.90;;;;;;5032471;28;20461;-68
2022/06/22 09:42:03;;;;;;;11.37;10.20;;;25.50;99.90;;;;;;5023018;28;20922;-68
2022/06/22 09:44:59;;;;;;;10.67;9.63;;;25.80;99.90;;;;;;5032017;28;20453;-68
2022/06/22 09:47:42;;;;;;;13.23;11.10;;;25.90;99.90;;;;;;5031959;28;20445;-68
2022/06/22 09:50:35;;;;;;;11.47;10.23;;;26.00;99.90;;;;;;5031796;28;20998;-67
2022/06/22 09:53:39;;;;;;;13.43;10.60;;;26.10;99.90;;;;;;5031873;28;20552;-68
2022/06/22 09:56:27;;;;;;;10.80;9.80;;;25.70;99.90;;;;;;5021740;28;20832;-67
2022/06/22 09:59:23;;;;;;;12.20;11.00;;;25.50;99.90;;;;;;5031846;28;20455;-68
2022/06/22 10:02:00;;;;;;;11.33;10.30;;;25.50;99.90;;;;;;5031700;28;20465;-67
2022/06/22 10:04:58;;;;;;;12.20;11.00;;;25.50;99.90;;;;;;5031727;28;20528;-68
2022/06/22 10:07:42;;;;;;;12.60;11.50;;;25.30;99.90;;;;;;5031463;28;20491;-67
2022/06/22 10:10:20;;;;;;;13.50;12.30;;;25.10;99.90;;;;;;5031281;28;20539;-68
2022/06/22 10:13:23;;;;;;;12.77;11.47;;;24.90;99.90;;;;;;5037577;28;20471;-68
2022/06/22 10:16:12;;;;;;;12.53;11.30;;;24.50;99.90;;;;;;5030807;28;20452;-67
2022/06/22 10:18:52;;;;;;;13.30;12.10;;;24.10;99.90;;;;;;5051265;28;20476;-68
2022/06/22 10:21:32;;;;;;;13.70;12.03;;;23.80;99.90;;;;;;5050368;28;20472;-67
2022/06/22 10:24:24;;;;;;;11.90;10.80;;;23.60;99.90;;;;;;5050535;28;20456;-67
2022/06/22 10:27:15;;;;;;;12.87;11.60;;;23.60;99.90;;;;;;5047497;28;20930;-67
2022/06/22 10:30:18;;;;;;;11.30;10.20;;;23.50;99.90;;;;;;5050645;28;20965;-67
2022/06/22 10:33:03;;;;;;;10.27;9.27;;;23.50;99.90;;;;;;4969468;28;20475;-67
2022/06/22 10:35:51;;;;;;;10.73;9.63;;;23.20;99.90;;;;;;5040710;28;20959;-67
2022/06/22 10:38:36;;;;;;;11.20;10.10;;;22.80;99.90;;;;;;5050815;28;20480;-68
2022/06/22 10:47:24;;;;;;;12.90;11.40;;;22.30;99.90;;;;;;5048875;28;21222;-68
2022/06/22 10:50:11;;;;;;;13.37;11.23;;;22.00;99.90;;;;;;5045581;28;20501;-68
2022/06/22 10:53:05;;;;;;;13.60;12.30;;;21.70;99.90;;;;;;5050339;28;20495;-68
2022/06/22 10:55:43;;;;;;;13.10;12.00;;;21.60;99.90;;;;;;5050526;28;20483;-68
2022/06/22 10:58:26;;;;;;;14.67;13.17;;;21.60;99.90;;;;;;5050094;28;20931;-69
2022/06/22 11:01:13;;;;;;;16.37;14.53;;;21.50;99.90;;;;;;5049873;28;20918;-68
2022/06/22 11:04:26;;;;;;;16.97;15.37;;;21.30;99.90;;;;;;5049918;28;20564;-68
2022/06/22 11:07:18;;;;;;;17.33;15.63;;;21.10;99.90;;;;;;5050217;28;20542;-68
2022/06/22 11:10:07;;;;;;;19.00;17.00;;;21.10;99.90;;;;;;5050013;28;20440;-69
2022/06/22 11:12:57;;;;;;;16.60;15.07;;;21.20;99.90;;;;;;5050349;28;20827;-67
2022/06/22 11:16:00;;;;;;;17.67;16.10;;;21.30;99.90;;;;;;5050333;28;20479;-68
2022/06/22 11:19:05;;;;;;;17.47;15.80;;;21.50;99.90;;;;;;5049870;28;20534;-68
2022/06/22 11:21:46;;;;;;;16.37;14.83;;;21.60;99.90;;;;;;5046306;28;20474;-68
2022/06/22 11:24:52;;;;;;;18.10;16.60;;;21.70;99.90;;;;;;5049469;28;20530;-67
2022/06/22 11:33:25;;;;;;;17.30;15.77;;;21.70;99.90;;;;;;5048655;28;20456;-68
2022/06/22 11:36:06;;;;;;;17.30;15.70;;;21.60;99.90;;;;;;5046507;28;21008;-68
2022/06/22 11:38:54;;;;;;;16.53;15.03;;;21.70;99.90;;;;;;5047201;28;20451;-69
2022/06/22 11:41:49;;;;;;;17.10;15.60;;;21.90;99.90;;;;;;5046071;28;20499;-68
2022/06/22 11:45:49;;;;;;;14.90;13.60;;;22.20;99.90;;;;;;5049661;28;20455;-67
2022/06/22 11:48:00;;;;;;;15.87;14.33;;;22.50;99.90;;;;;;5049274;28;20432;-66
2022/06/22 11:50:32;;;;;;;15.30;14.00;;;23.00;99.90;;;;;;5048019;28;20455;-68
2022/06/22 11:53:16;;;;;;;14.57;13.23;;;23.20;99.90;;;;;;5049157;28;20499;-68
2022/06/22 11:55:50;;;;;;;16.30;14.70;;;23.50;99.90;;;;;;5044447;28;20738;-66
2022/06/22 11:58:40;;;;;;;14.47;13.10;;;23.70;99.90;;;;;;5048476;28;20526;-68
2022/06/22 12:01:30;;;;;;;13.90;12.50;;;24.20;99.90;;;;;;5049015;28;20444;-67
2022/06/22 12:04:22;;;;;;;12.63;11.23;;;24.50;99.90;;;;;;5046336;28;20785;-67
2022/06/22 12:07:01;;;;;;;11.80;10.30;;;24.50;99.90;;;;;;5047627;28;20441;-67
2022/06/22 12:09:42;;;;;;;13.97;11.83;;;24.70;99.90;;;;;;5039442;28;21090;-66
2022/06/22 12:12:33;;;;;;;13.93;11.57;;;25.00;99.90;;;;;;5036729;28;21033;-67
2022/06/22 12:15:09;;;;;;;11.63;10.53;;;25.30;99.90;;;;;;5040196;28;20532;-67
2022/06/22 12:17:58;;;;;;;12.80;11.60;;;25.60;99.90;;;;;;5036840;28;20550;-67
2022/06/22 12:20:41;;;;;;;13.97;12.47;;;25.70;99.90;;;;;;5037863;28;20444;-68
2022/06/22 12:23:18;;;;;;;15.90;13.87;;;25.40;99.90;;;;;;5045627;28;21243;-67
2022/06/22 12:26:16;;;;;;;15.97;14.47;;;25.50;99.90;;;;;;5042925;28;20431;-67
2022/06/22 12:29:04;;;;;;;17.00;15.30;;;25.20;99.90;;;;;;5030766;28;20476;-67
2022/06/22 12:31:36;;;;;;;16.07;14.60;;;24.90;99.90;;;;;;5048107;28;20953;-67
2022/06/22 12:34:16;;;;;;;15.53;14.20;;;24.90;99.90;;;;;;5048722;28;20475;-65
2022/06/22 12:36:47;;;;;;;15.20;13.70;;;25.00;99.90;;;;;;5047195;28;20478;-68
2022/06/22 12:39:19;;;;;;;16.27;14.97;;;24.90;99.90;;;;;;5045124;28;22032;-67
2022/06/22 12:42:02;;;;;;;15.30;13.97;;;24.80;99.90;;;;;;5042178;28;20456;-66
2022/06/22 12:44:54;;;;;;;13.00;11.80;;;24.50;99.90;;;;;;5041891;28;20997;-67
2022/06/22 12:47:40;;;;;;;16.13;14.70;;;24.40;99.90;;;;;;5041117;28;20460;-66
2022/06/22 12:50:38;;;;;;;14.87;13.67;;;24.20;99.90;;;;;;5048734;28;20917;-66
2022/06/22 12:53:09;;;;;;;14.40;13.10;;;24.00;99.90;;;;;;5044387;28;20507;-66
2022/06/22 12:55:42;;;;;;;17.43;15.70;;;23.90;99.90;;;;;;5048884;28;20436;-67
2022/06/22 12:58:15;;;;;;;14.93;13.53;;;23.90;99.90;;;;;;5048260;28;20578;-67
2022/06/22 13:00:43;;;;;;;17.70;16.00;;;23.90;99.90;;;;;;5049231;28;20912;-66
2022/06/22 13:03:16;;;;;;;16.73;15.13;;;24.00;99.90;;;;;;5048719;28;20509;-66
2022/06/22 13:05:45;;;;;;;17.13;15.63;;;23.90;99.90;;;;;;5049068;28;20475;-66
2022/06/22 13:08:16;;;;;;;18.37;16.43;;;23.90;99.90;;;;;;5048688;28;20506;-67
2022/06/22 13:10:50;;;;;;;15.60;14.30;;;24.00;99.90;;;;;;5048044;28;20576;-67
2022/06/22 13:13:22;;;;;;;16.67;15.17;;;23.90;99.90;;;;;;5041904;28;20553;-67
2022/06/22 13:15:53;;;;;;;17.43;15.90;;;23.90;99.90;;;;;;5042927;28;20686;-67
2022/06/22 13:18:29;;;;;;;17.67;16.10;;;24.00;99.90;;;;;;5040812;28;20487;-66
2022/06/22 13:21:04;;;;;;;16.00;14.50;;;23.90;99.90;;;;;;5041227;28;20444;-67
2022/06/22 13:23:44;;;;;;;16.93;15.33;;;24.20;99.90;;;;;;5040168;28;20467;-71
2022/06/22 13:26:21;;;;;;;14.87;13.67;;;24.30;99.90;;;;;;5039873;28;20533;-67
2022/06/22 13:29:04;;;;;;;16.50;14.77;;;24.40;99.90;;;;;;5039225;28;20533;-67
2022/06/22 13:31:34;;;;;;;14.87;13.57;;;24.40;99.90;;;;;;5042167;28;20527;-68
2022/06/22 13:34:06;;;;;;;13.57;12.23;;;24.50;99.90;;;;;;5040235;28;20452;-69
2022/06/22 13:36:42;;;;;;;13.43;12.33;;;24.60;99.90;;;;;;5042496;28;20959;-68
2022/06/22 13:39:26;;;;;;;13.53;11.73;;;24.50;99.90;;;;;;5040710;28;20930;-68
2022/06/22 13:42:13;;;;;;;13.47;12.17;;;24.30;99.90;;;;;;5041359;28;20526;-68
2022/06/22 13:44:52;;;;;;;14.07;12.87;;;24.10;99.90;;;;;;5041921;28;20486;-68